Mount Holly, Vermont
Current Conditions -  °F | °C
As of 11:55 AM on Saturday 22 Nov 2014 (Local Time) from KRUT Reporting Station
Clear Clear  
Wind Chill: -6°   Ceiling: Unl
Heat Index: -1°   Visibility: 10mi
Dew Point: -15°   Wind: 10mph
Humidity: 34%   Direction: 210°SSW
Pressure: 30.17"   Gusts: NA
Location:  43.45°N, 72.83°W
Report Text: KRUT 221655Z 21009KT 10SM CLR M01/M15 A3017 RMK AO1
Loading
Personal Weather Stations






























Interactive Weather Map New forecast layout! Learn more

10-Day Weather Forecast

Advertisements
Track Severe Weather on mobile